Time;durP1;ratioP1;P1;durP2;ratioP2;P2;SDS_P1;SDS_P2;PMS_P1;PMS_P2;Temp;Humidity;BMP_temperature;BMP_pressure;BME280_temperature;BME280_humidity;BME280_pressure;Samples;Min_cycle;Max_cycle;Signal;HPM_P1;HPM_P2
2023/04/01 00:02:19;;;;;;;7.82;5.47;;;10.00;99.90;;;;;;5013377;28;20538;-35
2023/04/01 00:04:45;;;;;;;8.38;5.28;;;10.00;99.90;;;;;;5013289;28;20399;-35
2023/04/01 00:07:11;;;;;;;6.70;5.80;;;10.00;99.90;;;;;;5026367;28;20518;-35
2023/04/01 00:09:37;;;;;;;6.43;5.68;;;9.90;99.90;;;;;;5022834;28;20030;-35
2023/04/01 00:12:03;;;;;;;8.43;5.35;;;9.90;99.90;;;;;;5016292;28;20042;-35
2023/04/01 00:14:29;;;;;;;6.32;5.10;;;9.90;99.90;;;;;;5036951;28;20105;-36
2023/04/01 00:16:55;;;;;;;7.32;5.63;;;9.90;99.90;;;;;;5012760;28;20052;-35
2023/04/01 00:19:21;;;;;;;7.95;5.65;;;9.90;99.90;;;;;;5025482;28;20152;-35
2023/04/01 00:21:47;;;;;;;7.90;5.93;;;9.90;99.90;;;;;;5013273;28;20073;-37
2023/04/01 00:24:13;;;;;;;9.85;5.50;;;9.90;99.90;;;;;;5013727;28;20462;-35
2023/04/01 00:26:42;;;;;;;8.07;5.63;;;9.90;99.90;;;;;;5012962;28;20129;-35
2023/04/01 00:29:08;;;;;;;7.20;5.72;;;9.90;99.90;;;;;;5013129;28;20040;-34
2023/04/01 00:31:34;;;;;;;7.75;5.38;;;9.90;99.90;;;;;;5013364;28;20125;-34
2023/04/01 00:33:59;;;;;;;8.45;5.80;;;9.90;99.90;;;;;;5013074;28;20384;-35
2023/04/01 00:36:25;;;;;;;7.32;5.38;;;9.90;99.90;;;;;;5013013;28;20048;-34
2023/04/01 00:38:51;;;;;;;8.82;5.28;;;9.90;99.90;;;;;;5012945;28;20066;-35
2023/04/01 00:41:19;;;;;;;7.72;5.45;;;9.80;99.90;;;;;;5012814;28;20372;-35
2023/04/01 00:43:48;;;;;;;8.07;5.13;;;9.80;99.90;;;;;;5012904;28;20045;-35
2023/04/01 00:46:14;;;;;;;6.40;5.60;;;9.80;99.90;;;;;;5013921;28;20042;-34
2023/04/01 00:48:44;;;;;;;7.93;5.95;;;9.80;99.90;;;;;;5012609;28;20088;-39
2023/04/01 00:51:20;;;;;;;6.90;5.43;;;9.80;99.90;;;;;;5025906;28;20037;-40
2023/04/01 00:53:49;;;;;;;6.90;5.30;;;9.80;99.90;;;;;;5013471;28;20323;-37
2023/04/01 00:56:48;;;;;;;6.93;5.40;;;9.80;99.90;;;;;;5017285;28;20038;-39
2023/04/01 00:59:20;;;;;;;7.18;5.32;;;9.80;99.90;;;;;;5007845;28;20088;-40
2023/04/01 01:01:47;;;;;;;9.02;5.63;;;9.80;99.90;;;;;;5014596;28;20038;-39
2023/04/01 01:04:30;;;;;;;6.65;5.57;;;9.80;99.90;;;;;;5013847;28;20045;-39
2023/04/01 01:07:23;;;;;;;8.32;5.45;;;9.80;99.90;;;;;;5025982;28;20120;-39
2023/04/01 01:10:11;;;;;;;8.32;6.10;;;9.80;99.90;;;;;;5018430;28;20041;-39
2023/04/01 01:12:45;;;;;;;7.65;6.03;;;9.80;99.90;;;;;;5013874;28;20026;-39
2023/04/01 01:15:34;;;;;;;7.60;5.43;;;9.80;99.90;;;;;;5015789;28;20052;-41
2023/04/01 01:18:00;;;;;;;7.70;5.55;;;9.80;99.90;;;;;;5008582;28;20041;-38
2023/04/01 01:20:53;;;;;;;7.63;5.18;;;9.80;99.90;;;;;;5008261;28;20048;-39
2023/04/01 01:23:38;;;;;;;6.88;5.78;;;9.80;99.90;;;;;;5017342;28;20088;-39
2023/04/01 01:26:31;;;;;;;10.27;5.70;;;9.80;99.90;;;;;;4991669;28;20061;-39
2023/04/01 01:29:35;;;;;;;10.60;5.13;;;9.80;99.90;;;;;;5019871;28;20099;-38
2023/04/01 01:32:19;;;;;;;8.90;5.93;;;9.80;99.90;;;;;;5011238;28;20045;-38
2023/04/01 01:34:56;;;;;;;7.55;5.75;;;9.80;99.90;;;;;;5002407;28;20045;-38
2023/04/01 01:37:25;;;;;;;7.53;5.35;;;9.80;99.90;;;;;;5017034;28;20042;-38
2023/04/01 01:39:59;;;;;;;10.18;5.47;;;9.80;99.90;;;;;;5019706;28;20042;-39
2023/04/01 01:42:28;;;;;;;8.27;5.72;;;9.80;99.90;;;;;;5021014;28;20038;-39
2023/04/01 01:44:56;;;;;;;9.35;5.80;;;9.80;99.90;;;;;;5019169;28;20403;-39
2023/04/01 01:47:23;;;;;;;9.65;6.15;;;9.80;99.90;;;;;;5020199;28;20040;-39
2023/04/01 01:49:50;;;;;;;8.88;5.55;;;9.80;99.90;;;;;;5019651;28;20034;-39
2023/04/01 01:52:18;;;;;;;7.85;5.55;;;9.80;99.90;;;;;;5002184;28;20041;-39
2023/04/01 01:54:51;;;;;;;7.93;5.20;;;9.80;99.90;;;;;;5007506;28;20179;-40
2023/04/01 01:57:23;;;;;;;9.35;5.25;;;9.80;99.90;;;;;;5021890;28;20073;-40
2023/04/01 01:59:50;;;;;;;7.47;5.47;;;9.80;99.90;;;;;;5013209;28;20038;-38
2023/04/01 02:02:17;;;;;;;8.07;5.55;;;9.80;99.90;;;;;;5028649;28;20473;-39
2023/04/01 02:04:45;;;;;;;9.07;5.63;;;9.80;99.90;;;;;;5015600;28;20046;-38
2023/04/01 02:07:23;;;;;;;7.35;5.00;;;9.80;99.90;;;;;;5015611;28;20045;-39
2023/04/01 02:09:50;;;;;;;10.73;5.68;;;9.80;99.90;;;;;;5007932;28;20499;-38
2023/04/01 02:12:17;;;;;;;8.43;5.13;;;9.80;99.90;;;;;;5018002;28;20049;-41
2023/04/01 02:14:52;;;;;;;8.93;5.47;;;9.80;99.90;;;;;;5010164;28;20053;-38
2023/04/01 02:17:21;;;;;;;6.85;5.20;;;9.80;99.90;;;;;;5016596;28;20034;-38
2023/04/01 02:19:50;;;;;;;6.68;5.28;;;9.80;99.90;;;;;;5025925;28;20059;-38
2023/04/01 02:22:21;;;;;;;9.32;5.93;;;9.80;99.90;;;;;;5016927;28;20060;-38
2023/04/01 02:24:49;;;;;;;10.15;6.30;;;9.80;99.90;;;;;;5025796;28;20041;-38
2023/04/01 02:27:15;;;;;;;7.53;6.32;;;9.80;99.90;;;;;;5016309;28;20105;-38
2023/04/01 02:29:40;;;;;;;9.70;6.90;;;9.80;99.90;;;;;;5018150;28;20030;-38
2023/04/01 02:32:08;;;;;;;6.93;5.63;;;9.80;99.90;;;;;;5013723;28;20403;-38
2023/04/01 02:34:34;;;;;;;9.02;6.65;;;9.80;99.90;;;;;;5018337;28;20039;-38
2023/04/01 02:37:00;;;;;;;8.10;5.55;;;9.90;99.90;;;;;;5021151;28;20544;-38
2023/04/01 02:39:27;;;;;;;9.77;6.50;;;9.80;99.90;;;;;;5018003;28;20042;-38
2023/04/01 02:41:53;;;;;;;10.38;7.03;;;9.80;99.90;;;;;;5009504;28;20045;-38
2023/04/01 02:44:18;;;;;;;9.23;6.95;;;9.80;99.90;;;;;;5018134;28;20045;-38
2023/04/01 02:46:44;;;;;;;9.63;7.05;;;9.80;99.90;;;;;;5017922;28;20113;-38
2023/04/01 02:49:10;;;;;;;9.02;6.63;;;9.80;99.90;;;;;;5023621;28;20041;-38
2023/04/01 02:51:36;;;;;;;7.97;6.57;;;9.80;99.90;;;;;;5006997;28;20076;-38
2023/04/01 02:54:04;;;;;;;8.75;6.72;;;9.80;99.90;;;;;;5013779;28;20038;-38
2023/04/01 02:56:30;;;;;;;8.82;6.90;;;9.80;99.90;;;;;;5014472;28;20042;-38
2023/04/01 02:58:55;;;;;;;8.15;6.43;;;9.80;99.90;;;;;;5017978;28;20037;-38
2023/04/01 03:01:21;;;;;;;7.85;6.50;;;9.80;99.90;;;;;;5008171;28;20396;-38
2023/04/01 03:03:47;;;;;;;7.72;6.88;;;9.80;99.90;;;;;;5018506;28;20062;-38
2023/04/01 03:06:14;;;;;;;9.77;7.38;;;9.80;99.90;;;;;;5022352;28;20534;-38
2023/04/01 03:08:40;;;;;;;10.40;7.30;;;9.80;99.90;;;;;;5012670;28;20125;-38
2023/04/01 03:11:07;;;;;;;9.57;7.07;;;9.80;99.90;;;;;;5016914;28;20112;-38
2023/04/01 03:13:33;;;;;;;9.50;7.43;;;9.80;99.90;;;;;;5017091;28;20042;-38
2023/04/01 03:15:58;;;;;;;9.10;7.35;;;9.80;99.90;;;;;;5022792;28;20045;-38
2023/04/01 03:18:24;;;;;;;10.23;7.50;;;9.80;99.90;;;;;;5022324;28;20044;-38
2023/04/01 03:20:50;;;;;;;11.73;8.25;;;9.80;99.90;;;;;;5017826;28;20480;-38
2023/04/01 03:23:20;;;;;;;9.27;7.45;;;9.80;99.90;;;;;;5011766;28;20038;-38
2023/04/01 03:25:47;;;;;;;8.25;6.60;;;9.80;99.90;;;;;;5021422;28;20117;-38
2023/04/01 03:28:13;;;;;;;7.80;6.35;;;9.80;99.90;;;;;;5036207;28;20038;-38
2023/04/01 03:30:39;;;;;;;8.60;6.90;;;9.80;99.90;;;;;;5018372;28;20038;-38
2023/04/01 03:33:05;;;;;;;13.05;8.35;;;9.80;99.90;;;;;;5024272;28;20113;-38
2023/04/01 03:35:31;;;;;;;8.82;6.95;;;9.80;99.90;;;;;;5023723;28;20525;-38
2023/04/01 03:37:57;;;;;;;10.40;6.80;;;9.80;99.90;;;;;;5007943;28;20482;-38
2023/04/01 03:40:23;;;;;;;9.07;6.80;;;9.80;99.90;;;;;;5021017;28;20041;-38
2023/04/01 03:42:49;;;;;;;9.20;6.63;;;9.80;99.90;;;;;;5019965;28;20045;-38
2023/04/01 03:45:15;;;;;;;8.77;6.90;;;9.80;99.90;;;;;;5022613;28;20085;-38
2023/04/01 03:47:41;;;;;;;12.80;7.60;;;9.80;99.90;;;;;;5024368;28;20069;-38
2023/04/01 03:50:07;;;;;;;10.50;6.80;;;9.80;99.90;;;;;;5017696;28;20042;-38
2023/04/01 03:52:34;;;;;;;10.60;6.90;;;9.80;99.90;;;;;;5015345;28;20044;-38
2023/04/01 03:55:00;;;;;;;9.38;7.20;;;9.80;99.90;;;;;;5018916;28;20117;-38
2023/04/01 03:57:26;;;;;;;13.07;7.43;;;9.80;99.90;;;;;;5018873;28;20053;-38
2023/04/01 03:59:52;;;;;;;7.65;5.97;;;9.80;99.90;;;;;;5017058;28;20045;-38
2023/04/01 04:02:17;;;;;;;9.90;6.38;;;9.80;99.90;;;;;;5028412;28;20199;-38
2023/04/01 04:04:43;;;;;;;7.78;6.13;;;9.80;99.90;;;;;;5014406;28;20038;-38
2023/04/01 04:07:09;;;;;;;10.18;6.90;;;9.80;99.90;;;;;;5018755;28;20491;-38
2023/04/01 04:09:35;;;;;;;8.07;6.50;;;9.80;99.90;;;;;;5016697;28;20045;-38
2023/04/01 04:12:01;;;;;;;10.10;7.28;;;9.80;99.90;;;;;;5012602;28;20541;-38
2023/04/01 04:14:27;;;;;;;9.43;6.53;;;9.80;99.90;;;;;;5025185;28;20035;-36
2023/04/01 04:16:52;;;;;;;10.13;6.90;;;9.80;99.90;;;;;;5018561;28;20363;-35
2023/04/01 04:19:19;;;;;;;6.82;5.95;;;9.80;99.90;;;;;;5034193;28;20045;-35
2023/04/01 04:21:45;;;;;;;8.13;5.97;;;9.80;99.90;;;;;;5023869;28;20033;-35
2023/04/01 04:24:10;;;;;;;9.50;6.25;;;9.90;99.90;;;;;;5012977;28;20044;-35
2023/04/01 04:26:36;;;;;;;9.32;6.82;;;9.80;99.90;;;;;;5020299;28;20046;-35
2023/04/01 04:29:02;;;;;;;11.05;6.93;;;9.80;99.90;;;;;;5016605;28;20088;-35
2023/04/01 04:31:28;;;;;;;12.52;8.15;;;9.80;99.90;;;;;;5012918;28;20125;-35
2023/04/01 04:33:54;;;;;;;12.55;8.13;;;9.90;99.90;;;;;;5012263;28;20521;-35
2023/04/01 04:36:21;;;;;;;10.65;7.75;;;9.90;99.90;;;;;;5023612;28;20057;-35
2023/04/01 04:38:47;;;;;;;11.70;7.55;;;9.90;99.90;;;;;;5021065;28;20085;-38
2023/04/01 04:41:15;;;;;;;12.38;8.50;;;9.90;99.90;;;;;;5020150;28;20037;-38
2023/04/01 04:43:41;;;;;;;12.82;8.80;;;9.90;99.90;;;;;;4996617;28;20502;-38
2023/04/01 04:46:10;;;;;;;15.02;9.18;;;9.90;99.90;;;;;;5021758;28;20049;-38
2023/04/01 04:48:36;;;;;;;10.82;7.38;;;9.90;99.90;;;;;;5012870;28;20091;-38
2023/04/01 04:51:03;;;;;;;11.80;8.75;;;9.90;99.90;;;;;;5025069;28;20045;-38
2023/04/01 04:53:29;;;;;;;11.13;8.30;;;9.90;99.90;;;;;;5019712;28;20038;-37
2023/04/01 04:55:55;;;;;;;14.05;8.43;;;9.90;99.90;;;;;;5026360;28;20037;-38
2023/04/01 04:58:20;;;;;;;13.02;8.57;;;9.90;99.90;;;;;;5013484;28;20510;-38
2023/04/01 05:00:47;;;;;;;11.57;8.30;;;9.90;99.90;;;;;;5019524;28;20625;-38
2023/04/01 05:03:13;;;;;;;12.55;8.38;;;9.90;99.90;;;;;;5018392;28;20056;-38
2023/04/01 05:05:39;;;;;;;12.35;8.30;;;9.80;99.90;;;;;;5012375;28;20128;-38
2023/04/01 05:08:05;;;;;;;12.05;8.13;;;9.80;99.90;;;;;;5021380;28;20117;-38
2023/04/01 05:10:31;;;;;;;14.93;8.60;;;9.90;99.90;;;;;;5019704;28;20026;-38
2023/04/01 05:12:58;;;;;;;12.13;7.72;;;9.90;99.90;;;;;;5013921;28;20045;-38
2023/04/01 05:15:24;;;;;;;12.55;7.60;;;9.90;99.90;;;;;;5018613;28;20037;-38
2023/04/01 05:17:50;;;;;;;12.45;7.78;;;9.90;99.90;;;;;;5013422;28;20041;-37
2023/04/01 05:20:16;;;;;;;11.23;7.88;;;9.90;99.90;;;;;;5015551;28;20034;-38
2023/04/01 05:22:43;;;;;;;13.13;8.57;;;9.90;99.90;;;;;;5019569;28;20377;-38
2023/04/01 05:25:09;;;;;;;13.90;8.60;;;9.90;99.90;;;;;;5014260;28;20034;-38
2023/04/01 05:27:35;;;;;;;11.10;7.05;;;9.90;99.90;;;;;;4994852;28;20049;-38
2023/04/01 05:30:01;;;;;;;10.82;7.57;;;9.90;99.90;;;;;;5023076;28;20498;-39
2023/04/01 05:32:27;;;;;;;11.77;8.18;;;9.90;99.90;;;;;;5017844;28;20118;-38
2023/04/01 05:34:53;;;;;;;15.50;9.20;;;9.90;99.90;;;;;;5025183;28;20120;-38
2023/04/01 05:37:19;;;;;;;12.18;7.57;;;9.90;99.90;;;;;;5018194;28;20500;-38
2023/04/01 05:39:45;;;;;;;16.25;9.43;;;9.90;99.90;;;;;;5020943;28;20065;-39
2023/04/01 05:42:11;;;;;;;12.20;8.30;;;9.90;99.90;;;;;;4999534;28;20037;-38
2023/04/01 05:44:37;;;;;;;14.27;8.77;;;9.90;99.90;;;;;;5016941;28;20042;-38
2023/04/01 05:47:04;;;;;;;15.43;8.98;;;10.00;99.90;;;;;;5021691;28;20037;-38
2023/04/01 05:49:30;;;;;;;11.43;7.63;;;9.90;99.90;;;;;;5017316;28;20041;-38
2023/04/01 05:51:57;;;;;;;11.52;6.95;;;10.00;99.90;;;;;;5015087;28;20368;-37
2023/04/01 05:54:22;;;;;;;11.10;6.65;;;10.00;99.90;;;;;;5011726;28;20095;-36
2023/04/01 05:56:49;;;;;;;10.70;7.43;;;10.00;99.90;;;;;;5009297;28;20503;-37
2023/04/01 05:59:14;;;;;;;10.15;6.35;;;10.00;99.90;;;;;;5015500;28;20072;-36
2023/04/01 06:01:40;;;;;;;12.10;7.30;;;10.00;99.90;;;;;;5017621;28;20069;-36
2023/04/01 06:04:06;;;;;;;10.23;6.68;;;10.10;99.90;;;;;;5013035;28;20037;-36
2023/04/01 06:06:32;;;;;;;11.30;7.95;;;10.10;99.90;;;;;;5018516;28;20121;-37
2023/04/01 06:09:12;;;;;;;11.27;7.32;;;10.10;99.90;;;;;;5013092;28;20073;-36
2023/04/01 06:12:07;;;;;;;10.48;7.28;;;10.10;99.90;;;;;;5018405;28;20084;-36
2023/04/01 06:15:10;;;;;;;11.27;7.78;;;10.10;99.90;;;;;;5010666;28;20041;-37
2023/04/01 06:17:55;;;;;;;13.73;8.85;;;10.10;99.90;;;;;;5011740;28;20042;-37
2023/04/01 06:20:26;;;;;;;15.18;9.75;;;10.10;99.90;;;;;;5017123;28;20052;-37
2023/04/01 06:23:02;;;;;;;12.68;8.95;;;10.10;99.90;;;;;;5022519;28;20038;-36
2023/04/01 06:25:35;;;;;;;16.63;10.65;;;10.10;99.90;;;;;;5019365;28;20514;-37
2023/04/01 06:28:17;;;;;;;15.55;10.48;;;10.20;99.90;;;;;;5021357;28;20052;-36
2023/04/01 06:30:50;;;;;;;16.67;11.00;;;10.20;99.90;;;;;;5019312;28;20029;-36
2023/04/01 06:33:29;;;;;;;16.65;11.18;;;10.20;99.90;;;;;;5018314;28;20488;-36
2023/04/01 06:36:04;;;;;;;17.15;11.10;;;10.20;99.90;;;;;;5020651;28;20053;-36
2023/04/01 06:38:45;;;;;;;19.77;11.73;;;10.30;99.90;;;;;;5001471;28;20081;-36
2023/04/01 06:41:45;;;;;;;18.80;12.50;;;10.30;99.90;;;;;;5014007;28;20532;-36
2023/04/01 06:44:56;;;;;;;18.05;11.18;;;10.30;99.90;;;;;;4987519;28;20053;-34
2023/04/01 06:47:48;;;;;;;21.17;12.77;;;10.40;99.90;;;;;;5007412;28;20053;-35
2023/04/01 06:50:26;;;;;;;21.08;12.73;;;10.40;99.90;;;;;;5017854;28;20084;-34
2023/04/01 06:53:04;;;;;;;18.30;11.02;;;10.40;99.90;;;;;;4995402;28;20092;-34
2023/04/01 06:55:47;;;;;;;16.88;9.57;;;10.50;99.90;;;;;;5010809;28;20045;-34
2023/04/01 06:58:31;;;;;;;17.75;9.73;;;10.50;99.90;;;;;;5022391;28;20049;-34
2023/04/01 07:00:59;;;;;;;17.15;9.88;;;10.50;99.90;;;;;;5024643;28;20442;-34
2023/04/01 07:03:47;;;;;;;17.02;9.52;;;10.50;99.90;;;;;;5027478;28;20065;-34
2023/04/01 07:06:28;;;;;;;14.68;9.52;;;10.50;99.90;;;;;;5022262;28;20037;-34
2023/04/01 07:08:59;;;;;;;15.32;9.93;;;10.50;99.90;;;;;;5027818;28;20068;-35
2023/04/01 07:11:31;;;;;;;14.27;8.95;;;10.50;99.90;;;;;;5017406;28;20037;-34
2023/04/01 07:14:23;;;;;;;15.43;10.25;;;10.60;99.90;;;;;;5017146;28;20053;-34
2023/04/01 07:16:53;;;;;;;17.75;12.23;;;10.60;99.90;;;;;;5024195;28;20042;-34
2023/04/01 07:19:28;;;;;;;16.67;11.45;;;10.60;99.90;;;;;;5020048;28;20044;-34
2023/04/01 07:22:11;;;;;;;18.65;11.30;;;10.60;99.90;;;;;;5018984;28;20150;-34
2023/04/01 07:24:42;;;;;;;17.00;11.30;;;10.50;99.90;;;;;;5030151;28;20402;-34
2023/04/01 07:27:13;;;;;;;18.85;11.43;;;10.60;99.90;;;;;;5015374;28;20041;-34
2023/04/01 07:29:39;;;;;;;15.85;11.00;;;10.60;99.90;;;;;;5021339;28;20037;-34
2023/04/01 07:32:24;;;;;;;15.85;10.70;;;10.50;99.90;;;;;;5022171;28;20053;-34
2023/04/01 07:35:06;;;;;;;15.93;10.80;;;10.60;99.90;;;;;;5015966;28;20033;-34
2023/04/01 07:37:52;;;;;;;16.20;10.27;;;10.60;99.90;;;;;;5013259;28;20045;-34
2023/04/01 07:40:29;;;;;;;15.15;10.20;;;10.60;99.90;;;;;;5014167;28;20045;-34
2023/04/01 07:43:13;;;;;;;14.55;9.82;;;10.60;99.90;;;;;;5016429;28;20053;-34
2023/04/01 07:46:13;;;;;;;15.23;10.65;;;10.60;99.90;;;;;;5016010;28;20041;-34
2023/04/01 07:48:56;;;;;;;13.35;9.75;;;10.60;99.90;;;;;;5021683;28;20091;-34
2023/04/01 07:51:52;;;;;;;13.98;9.15;;;10.60;99.90;;;;;;5015756;28;20042;-34
2023/04/01 07:54:18;;;;;;;14.40;10.10;;;10.70;99.90;;;;;;5008040;28;20398;-35
2023/04/01 07:56:43;;;;;;;11.02;7.60;;;10.70;99.90;;;;;;5018381;28;20038;-35
2023/04/01 07:59:29;;;;;;;12.55;8.50;;;10.70;99.90;;;;;;5021077;28;20255;-35
2023/04/01 08:02:27;;;;;;;12.07;7.38;;;10.70;99.90;;;;;;4991561;28;20524;-35
2023/04/01 08:05:00;;;;;;;10.73;7.88;;;10.70;99.90;;;;;;5021697;28;20050;-35
2023/04/01 08:08:00;;;;;;;12.32;7.97;;;10.80;99.90;;;;;;5016734;28;20036;-35
2023/04/01 08:10:48;;;;;;;10.35;7.80;;;10.80;99.90;;;;;;4997387;28;20121;-35
2023/04/01 08:14:03;;;;;;;11.50;7.22;;;10.80;99.90;;;;;;5012433;28;20399;-35
2023/04/01 08:16:37;;;;;;;;;;;10.90;99.90;;;;;;5008687;28;20038;-35
2023/04/01 08:19:40;;;;;;;11.68;7.85;;;10.80;99.90;;;;;;5010726;28;20388;-35
2023/04/01 08:22:21;;;;;;;11.75;7.53;;;10.80;99.90;;;;;;5012651;28;20045;-35
2023/04/01 08:24:52;;;;;;;11.80;7.72;;;10.90;99.90;;;;;;5015596;28;20046;-36
2023/04/01 08:27:47;;;;;;;11.82;7.90;;;11.00;99.90;;;;;;5012868;28;20034;-35
2023/04/01 08:30:26;;;;;;;10.82;6.97;;;11.00;99.90;;;;;;5022102;28;20031;-34
2023/04/01 08:33:09;;;;;;;10.65;6.88;;;11.00;99.90;;;;;;4993030;28;20042;-34
2023/04/01 08:35:51;;;;;;;8.80;5.78;;;11.00;99.90;;;;;;4991830;28;20403;-34
2023/04/01 08:38:47;;;;;;;8.73;5.80;;;11.00;99.90;;;;;;5004501;28;20168;-34
2023/04/01 08:41:35;;;;;;;7.28;4.78;;;11.00;99.90;;;;;;5010661;28;20037;-36
2023/04/01 08:44:22;;;;;;;5.97;4.35;;;11.10;99.90;;;;;;5008894;28;20064;-36
2023/04/01 08:47:06;;;;;;;5.82;4.22;;;11.10;99.90;;;;;;5009869;28;20079;-36
2023/04/01 08:49:51;;;;;;;5.28;4.00;;;11.10;99.90;;;;;;5010797;28;20084;-36
2023/04/01 08:52:33;;;;;;;5.63;3.45;;;11.20;99.90;;;;;;5011443;28;20493;-36
2023/04/01 08:55:21;;;;;;;5.88;3.70;;;11.20;99.90;;;;;;5007933;28;20042;-36
2023/04/01 08:58:16;;;;;;;5.38;3.67;;;11.20;99.90;;;;;;5008909;28;20120;-36
2023/04/01 09:01:13;;;;;;;6.38;3.47;;;11.30;99.90;;;;;;5010456;28;20046;-37
2023/04/01 09:03:55;;;;;;;5.10;3.22;;;11.40;99.90;;;;;;5009170;28;20050;-36
2023/04/01 09:06:26;;;;;;;4.25;3.05;;;11.50;99.90;;;;;;5018382;28;20046;-36
2023/04/01 09:09:30;;;;;;;3.67;3.10;;;11.80;99.90;;;;;;5029465;28;20038;-36
2023/04/01 09:11:55;;;;;;;3.83;2.33;;;12.10;99.90;;;;;;5000343;28;20042;-36
2023/04/01 09:14:25;;;;;;;2.80;1.88;;;12.00;99.90;;;;;;5016559;28;20032;-36
2023/04/01 09:17:27;;;;;;;2.25;1.95;;;12.00;99.90;;;;;;5021146;28;20500;-36
2023/04/01 09:20:24;;;;;;;2.40;2.20;;;11.90;99.90;;;;;;5004670;28;20043;-37
2023/04/01 09:22:53;;;;;;;2.75;2.17;;;11.90;99.90;;;;;;5017549;28;20117;-36
2023/04/01 09:25:49;;;;;;;2.58;1.95;;;12.00;99.90;;;;;;5021229;28;20125;-36
2023/04/01 09:28:27;;;;;;;2.75;2.20;;;12.00;99.90;;;;;;5011349;28;20033;-37
2023/04/01 09:31:31;;;;;;;2.58;2.38;;;12.20;99.90;;;;;;5021622;28;20049;-36
2023/04/01 09:33:59;;;;;;;3.92;2.80;;;12.20;99.90;;;;;;5013429;28;20048;-36
2023/04/01 09:36:50;;;;;;;3.05;2.65;;;12.30;99.90;;;;;;5013685;28;20120;-36
2023/04/01 09:39:26;;;;;;;3.75;3.20;;;12.30;99.90;;;;;;5034518;28;20037;-36
2023/04/01 09:42:15;;;;;;;4.18;3.63;;;12.20;99.90;;;;;;5013953;28;20034;-36
2023/04/01 09:44:56;;;;;;;6.45;3.85;;;12.20;99.90;;;;;;5021196;28;20042;-36
2023/04/01 09:47:24;;;;;;;6.03;4.30;;;12.10;99.90;;;;;;5016962;28;20037;-36
2023/04/01 09:50:16;;;;;;;5.60;4.15;;;12.10;99.90;;;;;;5014978;28;20065;-36
2023/04/01 09:53:11;;;;;;;5.05;4.20;;;12.10;99.90;;;;;;5010805;28;20109;-36
2023/04/01 09:56:13;;;;;;;5.60;4.65;;;12.20;99.90;;;;;;5005443;28;20557;-36
2023/04/01 09:59:16;;;;;;;5.13;4.25;;;12.30;99.90;;;;;;5007738;28;20053;-36
2023/04/01 10:02:02;;;;;;;6.55;4.43;;;12.30;99.90;;;;;;5010986;28;20041;-36
2023/04/01 10:04:51;;;;;;;6.28;4.38;;;12.30;99.90;;;;;;5009988;28;20133;-36
2023/04/01 10:07:35;;;;;;;5.75;4.53;;;12.30;99.90;;;;;;5018179;28;20033;-36
2023/04/01 10:10:20;;;;;;;5.13;4.47;;;12.30;99.90;;;;;;5015454;28;20038;-36
2023/04/01 10:13:03;;;;;;;5.05;4.55;;;12.40;99.90;;;;;;5016494;28;20050;-36
2023/04/01 10:15:40;;;;;;;4.93;4.28;;;12.40;99.90;;;;;;5009848;28;20076;-36
2023/04/01 10:18:51;;;;;;;5.32;4.50;;;12.40;99.90;;;;;;5030114;28;20042;-37
2023/04/01 10:21:49;;;;;;;5.10;4.28;;;12.40;99.90;;;;;;4989717;28;20046;-36
2023/04/01 10:24:33;;;;;;;4.50;4.03;;;12.40;99.90;;;;;;5004222;28;20133;-36
2023/04/01 10:27:10;;;;;;;5.88;4.45;;;12.40;99.90;;;;;;5009668;28;20049;-36
2023/04/01 10:30:04;;;;;;;4.43;3.70;;;12.40;99.90;;;;;;5009755;28;20044;-36
2023/04/01 10:32:48;;;;;;;4.70;4.25;;;12.50;99.90;;;;;;5011910;28;20175;-36
2023/04/01 10:35:28;;;;;;;5.25;4.65;;;12.60;99.90;;;;;;5023064;28;20041;-36
2023/04/01 10:38:05;;;;;;;5.22;4.55;;;12.60;99.90;;;;;;5032456;28;20435;-35
2023/04/01 10:40:37;;;;;;;4.80;4.40;;;12.60;99.90;;;;;;5018133;28;20468;-34
2023/04/01 10:43:03;;;;;;;5.47;4.28;;;12.70;99.90;;;;;;5018039;28;20073;-35
2023/04/01 10:45:47;;;;;;;5.35;4.70;;;12.70;99.90;;;;;;5017375;28;20073;-34
2023/04/01 10:49:00;;;;;;;4.97;4.47;;;12.70;99.90;;;;;;5018060;28;20038;-34
2023/04/01 10:51:54;;;;;;;5.15;4.65;;;12.80;99.90;;;;;;5017533;28;20041;-34
2023/04/01 10:54:25;;;;;;;5.05;4.25;;;12.80;99.90;;;;;;5017608;28;20044;-35
2023/04/01 10:57:28;;;;;;;5.60;5.10;;;12.90;99.90;;;;;;5017356;28;20049;-34
2023/04/01 11:00:25;;;;;;;6.22;5.20;;;13.00;99.90;;;;;;5017703;28;20463;-34
2023/04/01 11:03:44;;;;;;;6.03;5.07;;;13.10;99.90;;;;;;5017711;28;20461;-35
2023/04/01 11:06:39;;;;;;;4.95;4.45;;;13.10;99.90;;;;;;4989587;28;20057;-34
2023/04/01 11:09:40;;;;;;;5.13;4.60;;;13.20;99.90;;;;;;5017504;28;20100;-34
2023/04/01 11:12:24;;;;;;;4.97;4.18;;;13.20;99.90;;;;;;4973352;28;20081;-36
2023/04/01 11:14:53;;;;;;;6.70;4.85;;;13.30;99.90;;;;;;5020974;28;20511;-38
2023/04/01 11:17:42;;;;;;;5.22;4.30;;;13.20;99.90;;;;;;5022636;28;20096;-35
2023/04/01 11:20:34;;;;;;;4.88;4.35;;;13.30;99.90;;;;;;5017039;28;20077;-36
2023/04/01 11:23:37;;;;;;;4.93;4.43;;;13.30;99.90;;;;;;5013377;28;20192;-36
2023/04/01 11:26:35;;;;;;;6.00;5.22;;;13.30;99.90;;;;;;5014258;28;20527;-36
2023/04/01 11:29:33;;;;;;;6.30;5.10;;;13.40;99.90;;;;;;5015861;28;20271;-35
2023/04/01 11:32:29;;;;;;;7.30;5.07;;;13.40;99.90;;;;;;5014903;28;20083;-35
2023/04/01 11:35:23;;;;;;;8.05;7.25;;;13.50;99.90;;;;;;5020834;28;20148;-35
2023/04/01 11:37:55;;;;;;;6.47;5.90;;;13.50;99.90;;;;;;5019790;28;20472;-35
2023/04/01 11:40:41;;;;;;;5.90;5.30;;;13.40;99.90;;;;;;5026643;28;20033;-35
2023/04/01 11:43:46;;;;;;;5.80;5.30;;;13.20;99.90;;;;;;5013942;28;20120;-35
2023/04/01 11:46:48;;;;;;;5.30;4.80;;;13.00;99.90;;;;;;5011199;28;20030;-35
2023/04/01 11:49:41;;;;;;;5.35;4.85;;;12.90;99.90;;;;;;5013221;28;20390;-36
2023/04/01 11:52:17;;;;;;;5.65;5.03;;;12.80;99.90;;;;;;5007795;28;20029;-36
2023/04/01 11:54:52;;;;;;;4.80;4.40;;;12.70;99.90;;;;;;5017033;28;20368;-36
2023/04/01 11:57:43;;;;;;;4.82;4.43;;;12.60;99.90;;;;;;5023538;28;20053;-36
2023/04/01 12:00:25;;;;;;;4.70;4.25;;;12.60;99.90;;;;;;5012126;28;20042;-36
2023/04/01 12:03:06;;;;;;;4.65;4.25;;;12.50;99.90;;;;;;5017813;28;20049;-36
2023/04/01 12:05:44;;;;;;;3.95;3.65;;;12.40;99.90;;;;;;5005986;28;20046;-36
2023/04/01 12:08:25;;;;;;;4.18;3.80;;;12.30;99.90;;;;;;5027746;28;20048;-36
2023/04/01 12:11:04;;;;;;;4.75;4.25;;;12.20;99.90;;;;;;5016382;28;20410;-36
2023/04/01 12:13:51;;;;;;;4.45;3.97;;;12.00;99.90;;;;;;5007462;28;20105;-36
2023/04/01 12:16:23;;;;;;;4.13;3.72;;;11.90;99.90;;;;;;5015612;28;20052;-37
2023/04/01 12:18:52;;;;;;;3.58;3.28;;;11.90;99.90;;;;;;5015410;28;20438;-36
2023/04/01 12:21:22;;;;;;;3.90;3.60;;;11.70;99.90;;;;;;5021828;28;20041;-36
2023/04/01 12:23:57;;;;;;;3.88;3.58;;;11.60;99.90;;;;;;5011312;28;20492;-36
2023/04/01 12:26:35;;;;;;;3.38;3.08;;;11.50;99.90;;;;;;5020199;28;20037;-37
2023/04/01 12:29:20;;;;;;;4.35;3.70;;;11.50;99.90;;;;;;5013829;28;20092;-36
2023/04/01 12:31:51;;;;;;;3.80;3.47;;;11.40;99.90;;;;;;5018774;28;20048;-36
2023/04/01 12:34:57;;;;;;;4.28;3.30;;;11.40;99.90;;;;;;5011031;28;20044;-36
2023/04/01 12:37:42;;;;;;;3.08;2.88;;;11.40;99.90;;;;;;5019230;28;20502;-34
2023/04/01 12:40:35;;;;;;;3.78;3.25;;;11.40;99.90;;;;;;5017385;28;20108;-35
2023/04/01 12:43:32;;;;;;;5.00;3.30;;;11.40;99.90;;;;;;5030150;22;20046;-34
2023/04/01 12:46:20;;;;;;;3.17;2.90;;;11.40;99.90;;;;;;5001647;28;20304;-36
2023/04/01 12:48:59;;;;;;;3.33;3.03;;;11.40;99.90;;;;;;4990450;28;20034;-35
2023/04/01 12:52:02;;;;;;;7.93;3.03;;;11.30;99.90;;;;;;4978428;28;20066;-35
2023/04/01 12:54:59;;;;;;;4.07;3.17;;;11.30;99.90;;;;;;5012999;28;20049;-35
2023/04/01 12:58:02;;;;;;;3.47;3.10;;;11.20;99.90;;;;;;4989873;28;20069;-37
2023/04/01 13:00:44;;;;;;;3.30;3.00;;;11.20;99.90;;;;;;5007584;28;20034;-36
2023/04/01 13:03:21;;;;;;;3.53;3.22;;;11.20;99.90;;;;;;5001728;28;20510;-38
2023/04/01 13:05:56;;;;;;;3.28;2.95;;;11.20;99.90;;;;;;4986914;28;20109;-38
2023/04/01 13:08:30;;;;;;;3.30;3.00;;;11.30;99.90;;;;;;4993726;28;20042;-41
2023/04/01 13:11:20;;;;;;;3.97;3.28;;;11.20;99.90;;;;;;5012106;28;20038;-39
2023/04/01 13:14:23;;;;;;;3.08;2.88;;;11.20;99.90;;;;;;4989375;28;20046;-38
2023/04/01 13:17:06;;;;;;;3.60;3.30;;;11.30;99.90;;;;;;4999743;28;20049;-38
2023/04/01 13:19:51;;;;;;;3.38;2.97;;;11.30;99.90;;;;;;4988246;28;20042;-37
2023/04/01 13:22:30;;;;;;;4.95;3.30;;;11.40;99.90;;;;;;4992569;28;20046;-38
2023/04/01 13:25:03;;;;;;;3.72;3.13;;;11.40;99.90;;;;;;4987848;28;20046;-39
2023/04/01 13:27:44;;;;;;;3.65;3.35;;;11.30;99.90;;;;;;4977491;28;20963;-38
2023/04/01 13:30:34;;;;;;;3.20;2.90;;;11.40;99.90;;;;;;4989648;28;20352;-40
2023/04/01 13:33:15;;;;;;;4.90;3.08;;;11.30;99.90;;;;;;4991412;28;20130;-40
2023/04/01 13:36:06;;;;;;;3.75;3.45;;;11.20;99.90;;;;;;4988574;28;20121;-38
2023/04/01 13:38:44;;;;;;;3.90;3.50;;;11.10;99.90;;;;;;4992973;28;20050;-38
2023/04/01 13:41:27;;;;;;;3.67;3.38;;;10.90;99.90;;;;;;4993872;28;20534;-38